LEASLEXJ

Guest
Details From LEAS - Asturias
To LEXJ - Santander
Flight Number -
Tags generated
Created
Modified
Stats Distance 97 nm / 179 km
Max Altitude 11,600 ft / 3,536 m
Waypoints 3
Social Downloads 0
Likes 0
Share VATSIM

Download

Looking for another format? Having issues loading an existing format? Contact us
Advertisement - Login to hide

Notes

Basic altitude profile: - Ascent Rate: 2500ft/min - Ascent Speed: 250kts - Cruise Altitude: 35000ft - Cruise Speed: 420kts - Descent Rate: 1500ft/min - Descent Speed: 250kts Options: - Use NATs: yes - Use PACOTS: yes - Use low airways: no - Use high airways: yes

Route

LEAS TEDRI LEXJ

ID Type Via Altitude Latitude Longitude Leg Dist Tot Dist Heading (true) Name
O LEAS APT - 0 ft / 0 m 43.56350˚ -6.03467˚ - 0 nm - Asturias
TEDRI FIX - 11,600 ft / 3,536 m 43.50527˚ -5.22687˚ 35 nm 35 nm 95° / 96° -
O LEXJ APT - 0 ft / 0 m 43.42719˚ -3.82047˚ 61 nm 96 nm 94° / 95° Santander

Altitude Profile

Advertisement - Login to hide

LEAS

Details ICAO LEAS (OVD)
Name Asturias
Region Spain
Timezone Europe/Madrid (UTC+2.0)
Stats Elevation 416 ft / 127 m (AMSL)
Location 43.563496° -6.034670°
Runways 1
Magnetic Variation 1.569° W

METAR

LEAS 270330Z AUTO 29005KT 270V330 4000 BR BKN034/// 13/13 Q1014

Decode

TAF

TAF LEAS 270200Z 2703/2803 29008KT 8000 SCT012 BKN025 TX16/2715Z TN13/2706Z PROB40 TEMPO 2703/2803 3000 -DZ BR BKN010 BKN014 PROB40 TEMPO 2703/2709 1500 DZ BCFG BKN005 PROB30 TEMPO 2703/2706 0600 BCFG VV002

Decode

Departure Runways

ID Width Length Bearing (true) Bearing (mag) Surface Threshold Offset Overrun Length
11 148 ft / 45 m 7,216 ft / 2,200 m 108.09° 109.66° Asphalt 0 ft / 0 m 164 ft / 50 m
29 148 ft / 45 m 7,216 ft / 2,200 m 288.10° 289.67° Asphalt 0 ft / 0 m 164 ft / 50 m

LEXJ

Details ICAO LEXJ (SDR)
Name Santander
Region Spain
Timezone Europe/Madrid (UTC+2.0)
Stats Elevation 16 ft / 5 m (AMSL)
Location 43.427188° -3.820470°
Runways 1
Magnetic Variation 0.856° W

METAR

LEXJ 270330Z VRB01KT 8000 SCT016 SCT024 BKN036 16/16 Q1014

Decode

TAF

TAF LEXJ 270200Z 2703/2803 22005KT 8000 SCT015 SCT025 TX19/2714Z TN15/2706Z BECMG 2708/2712 35010KT PROB40 TEMPO 2703/2803 3000 -DZ BR BKN010 BKN014

Decode

Destination Runways

ID Width Length Bearing (true) Bearing (mag) Surface Threshold Offset Overrun Length
11 148 ft / 45 m 7,597 ft / 2,316 m 110.20° 111.06° Asphalt 0 ft / 0 m 98 ft / 30 m
29 148 ft / 45 m 7,597 ft / 2,316 m 290.22° 291.08° Asphalt 0 ft / 0 m 0 ft / 0 m

Approach Navaids

Runway Type Ident Frequency Range Bearing (true) Bearing (mag) Slope Elevation
29 Localiser STA 110.90 MHz 18 nm / 33 km 290.19° 291.05° - 16 ft / 5 m (AMSL)
29 Glidescope STA 110.90 MHz 10 nm / 19 km 290.21° 291.06° 3.00° 16 ft / 5 m (AMSL)
29 DME STA 110.90 MHz 18 nm / 33 km - - - 26 ft / 8 m (AMSL)

Popular Alternatives